createdAt,value
2023-02-09T10:06:35.148Z,8.00
2023-02-09T10:11:34.318Z,8.40
2023-02-09T10:16:30.621Z,8.73
2023-02-09T10:21:26.428Z,8.87
2023-02-09T10:26:24.570Z,8.90
2023-02-09T10:31:28.424Z,8.63
2023-02-09T10:36:29.859Z,8.57
2023-02-09T10:41:25.161Z,8.83
2023-02-09T10:46:21.716Z,8.17
2023-02-09T10:51:17.823Z,9.10
2023-02-09T10:56:19.391Z,9.67
2023-02-09T11:06:44.840Z,6.77
2023-02-09T11:11:40.469Z,6.73
2023-02-09T11:17:04.287Z,7.80
2023-02-09T11:22:07.600Z,7.77
2023-02-09T11:27:07.198Z,8.10
2023-02-09T11:32:14.670Z,7.67
2023-02-09T11:37:26.855Z,7.90
2023-02-09T11:42:43.202Z,7.27
2023-02-09T11:47:47.015Z,6.90
2023-02-09T11:52:48.681Z,9.90
2023-02-09T11:57:46.444Z,7.80
2023-02-09T12:02:47.644Z,8.87
2023-02-09T12:07:49.369Z,7.83
2023-02-09T12:12:49.339Z,7.73
2023-02-09T12:17:47.596Z,8.37
2023-02-09T12:22:57.444Z,8.13
2023-02-09T12:28:42.431Z,8.00
2023-02-09T12:33:37.932Z,8.73
2023-02-09T12:39:07.447Z,7.87
2023-02-09T12:44:23.097Z,8.57
2023-02-09T12:49:32.661Z,8.63
2023-02-09T12:54:35.246Z,9.10
2023-02-09T12:59:28.767Z,8.63
2023-02-09T13:04:24.346Z,8.77
2023-02-09T13:09:26.549Z,8.97
2023-02-09T13:14:23.454Z,8.10
2023-02-09T13:19:46.965Z,8.50
2023-02-09T13:24:49.578Z,8.07
2023-02-09T13:29:50.041Z,7.90
2023-02-09T13:34:47.714Z,7.83
2023-02-09T13:39:44.215Z,7.70
2023-02-09T13:44:37.723Z,8.20
2023-02-09T13:49:32.548Z,8.30
2023-02-09T13:54:26.026Z,7.87
2023-02-09T13:59:19.608Z,8.23
2023-02-09T14:04:17.072Z,8.77
2023-02-09T14:09:20.143Z,8.67
2023-02-09T14:14:19.843Z,9.13
2023-02-09T14:19:27.204Z,8.90
2023-02-09T14:24:23.740Z,8.73
2023-02-09T14:29:20.449Z,8.50
2023-02-09T14:34:30.248Z,8.57
2023-02-09T14:39:26.057Z,8.57
2023-02-09T14:44:22.358Z,8.67
2023-02-09T14:49:16.112Z,8.33
2023-02-09T14:54:27.654Z,8.40
2023-02-09T14:59:21.929Z,8.57
2023-02-09T15:04:15.772Z,9.37
2023-02-09T15:09:11.117Z,9.87
2023-02-09T15:14:10.896Z,10.40
2023-02-09T15:19:05.687Z,9.47
2023-02-09T15:23:59.577Z,10.83
2023-02-09T15:28:53.375Z,9.87
2023-02-09T15:33:48.765Z,9.90
2023-02-09T15:38:42.400Z,9.63
2023-02-09T15:43:53.926Z,9.43
2023-02-09T15:48:49.288Z,10.93
2023-02-09T15:53:43.456Z,10.33
2023-02-09T15:58:44.428Z,12.37
2023-02-09T16:03:38.485Z,14.57
2023-02-09T16:08:35.681Z,14.63
2023-02-09T16:13:29.382Z,27.50
2023-02-09T16:18:23.156Z,46.80
2023-02-09T16:23:21.201Z,27.23
2023-02-09T16:28:16.820Z,20.87
2023-02-09T16:33:10.458Z,22.73
2023-02-09T16:38:04.287Z,17.00
2023-02-09T16:42:59.675Z,21.07
2023-02-09T16:47:59.084Z,34.80
2023-02-09T16:52:55.422Z,25.10
